Time;durP1;ratioP1;P1;durP2;ratioP2;P2;SDS_P1;SDS_P2;PMS_P1;PMS_P2;Temp;Humidity;BMP_temperature;BMP_pressure;BME280_temperature;BME280_humidity;BME280_pressure;Samples;Min_cycle;Max_cycle;Signal;HPM_P1;HPM_P2
2022/04/13 00:02:12;;;;;;;4.20;3.00;;;;;;;;;;5025877;28;20386;-73
2022/04/13 00:04:38;;;;;;;3.60;3.28;;;;;;;;;;5038786;28;20251;-73
2022/04/13 00:07:03;;;;;;;3.07;2.70;;;;;;;;;;5027393;28;20224;-73
2022/04/13 00:09:28;;;;;;;3.47;3.03;;;;;;;;;;5022626;28;20243;-73
2022/04/13 00:11:54;;;;;;;4.27;3.17;;;;;;;;;;5032705;28;20186;-73
2022/04/13 00:14:22;;;;;;;3.10;2.80;;;;;;;;;;5037920;28;20196;-73
2022/04/13 00:16:48;;;;;;;5.23;3.30;;;;;;;;;;5016767;28;20178;-73
2022/04/13 00:19:13;;;;;;;3.57;3.07;;;;;;;;;;5033719;28;20185;-73
2022/04/13 00:21:39;;;;;;;5.23;3.33;;;;;;;;;;5022553;28;20212;-73
2022/04/13 00:24:04;;;;;;;3.50;3.10;;;;;;;;;;5028078;28;20190;-73
2022/04/13 00:26:29;;;;;;;4.30;3.70;;;;;;;;;;5027753;28;20229;-73
2022/04/13 00:28:54;;;;;;;3.93;3.17;;;;;;;;;;5023676;28;20264;-73
2022/04/13 00:31:20;;;;;;;5.20;2.78;;;;;;;;;;5020809;28;20190;-73
2022/04/13 00:33:45;;;;;;;4.10;3.00;;;;;;;;;;5038147;28;20265;-73
2022/04/13 00:36:10;;;;;;;4.50;3.40;;;;;;;;;;5038869;28;20196;-73
2022/04/13 00:38:35;;;;;;;4.60;3.20;;;;;;;;;;5027524;28;20191;-73
2022/04/13 00:41:01;;;;;;;4.07;3.07;;;;;;;;;;5035400;28;20184;-73
2022/04/13 00:43:26;;;;;;;5.67;3.57;;;;;;;;;;5019880;28;20184;-73
2022/04/13 00:45:51;;;;;;;2.90;2.60;;;;;;;;;;5034940;28;20281;-73
2022/04/13 00:48:37;;;;;;;4.83;3.43;;;;;;;;;;5043486;28;20192;-72
2022/04/13 00:51:02;;;;;;;3.63;3.00;;;;;;;;;;5035739;28;20186;-73
2022/04/13 00:53:29;;;;;;;4.50;3.37;;;;;;;;;;5025025;28;20178;-73
2022/04/13 00:55:55;;;;;;;4.97;3.40;;;;;;;;;;5029530;28;20185;-73
2022/04/13 00:58:22;;;;;;;5.13;3.53;;;;;;;;;;5021895;28;20476;-73
2022/04/13 01:00:48;;;;;;;4.13;2.90;;;;;;;;;;5022531;28;20194;-73
2022/04/13 01:03:15;;;;;;;5.43;3.03;;;;;;;;;;5034325;28;20178;-73
2022/04/13 01:05:40;;;;;;;4.30;3.53;;;;;;;;;;5026323;28;20201;-73
2022/04/13 01:08:06;;;;;;;5.37;3.00;;;;;;;;;;5017651;28;20236;-73
2022/04/13 01:10:32;;;;;;;2.87;2.60;;;;;;;;;;5021280;28;20238;-73
2022/04/13 01:12:57;;;;;;;4.37;3.60;;;;;;;;;;5029073;28;20180;-73
2022/04/13 01:15:22;;;;;;;3.17;2.40;;;;;;;;;;5023152;28;20169;-73
2022/04/13 01:17:48;;;;;;;3.73;2.60;;;;;;;;;;5027482;28;21098;-73
2022/04/13 01:20:16;;;;;;;3.27;2.70;;;;;;;;;;5023809;28;20187;-73
2022/04/13 01:22:41;;;;;;;3.30;2.90;;;;;;;;;;5028339;28;20190;-73
2022/04/13 01:25:07;;;;;;;4.00;2.77;;;;;;;;;;5015565;28;20182;-73
2022/04/13 01:27:32;;;;;;;4.37;2.70;;;;;;;;;;5032986;28;20236;-73
2022/04/13 01:29:57;;;;;;;2.80;2.50;;;;;;;;;;5031817;28;20208;-73
2022/04/13 01:32:22;;;;;;;2.67;2.27;;;;;;;;;;5031741;28;20171;-73
2022/04/13 01:34:51;;;;;;;2.90;2.55;;;;;;;;;;5040759;28;20180;-73
2022/04/13 01:37:16;;;;;;;3.67;2.60;;;;;;;;;;5020276;28;20216;-73
2022/04/13 01:39:41;;;;;;;2.90;2.00;;;;;;;;;;5026562;28;20217;-73
2022/04/13 01:42:07;;;;;;;4.87;2.00;;;;;;;;;;5026645;28;20180;-73
2022/04/13 01:44:32;;;;;;;6.87;2.07;;;;;;;;;;5025831;28;20238;-73
2022/04/13 01:46:57;;;;;;;4.03;2.50;;;;;;;;;;5025491;28;20213;-73
2022/04/13 01:49:23;;;;;;;2.97;2.10;;;;;;;;;;5018512;28;20178;-73
2022/04/13 01:51:48;;;;;;;4.20;2.80;;;;;;;;;;5031538;28;20179;-73
2022/04/13 01:54:13;;;;;;;3.23;2.40;;;;;;;;;;5021574;28;20186;-72
2022/04/13 01:56:38;;;;;;;4.07;2.47;;;;;;;;;;5021885;28;20258;-73
2022/04/13 01:59:04;;;;;;;2.70;2.20;;;;;;;;;;5020735;28;20181;-73
2022/04/13 02:01:31;;;;;;;2.97;2.37;;;;;;;;;;5018964;28;20183;-73
2022/04/13 02:03:56;;;;;;;5.80;2.20;;;;;;;;;;5030899;28;20204;-73
2022/04/13 02:06:21;;;;;;;4.07;2.40;;;;;;;;;;5011994;28;20222;-73
2022/04/13 02:08:48;;;;;;;6.53;2.37;;;;;;;;;;5022840;28;20179;-73
2022/04/13 02:11:13;;;;;;;3.17;2.53;;;;;;;;;;5024252;28;20212;-73
2022/04/13 02:13:39;;;;;;;3.77;2.90;;;;;;;;;;5015557;28;20279;-73
2022/04/13 02:16:05;;;;;;;4.03;2.67;;;;;;;;;;5018185;28;20282;-73
2022/04/13 02:18:31;;;;;;;5.43;3.20;;;;;;;;;;5017727;28;20176;-73
2022/04/13 02:20:56;;;;;;;5.30;3.10;;;;;;;;;;5025053;28;20183;-73
2022/04/13 02:23:21;;;;;;;6.77;2.80;;;;;;;;;;5014845;28;20211;-73
2022/04/13 02:25:46;;;;;;;4.60;3.00;;;;;;;;;;5034869;28;20242;-73
2022/04/13 02:28:12;;;;;;;6.73;2.27;;;;;;;;;;5022958;28;20204;-73
2022/04/13 02:30:37;;;;;;;3.70;2.10;;;;;;;;;;5024405;28;20443;-73
2022/04/13 02:33:02;;;;;;;3.80;1.90;;;;;;;;;;5027181;28;20183;-73
2022/04/13 02:35:27;;;;;;;3.10;2.03;;;;;;;;;;5015717;28;20223;-73
2022/04/13 02:37:52;;;;;;;2.17;1.80;;;;;;;;;;5018606;28;20279;-73
2022/04/13 02:40:19;;;;;;;3.97;1.87;;;;;;;;;;5020186;28;20172;-73
2022/04/13 02:42:44;;;;;;;2.03;1.60;;;;;;;;;;5023213;28;20185;-73
2022/04/13 02:45:10;;;;;;;1.57;1.47;;;;;;;;;;5021972;28;20183;-73
2022/04/13 02:47:35;;;;;;;2.17;1.50;;;;;;;;;;5030000;28;20348;-73
2022/04/13 02:50:00;;;;;;;5.23;1.83;;;;;;;;;;5024047;28;20175;-75
2022/04/13 02:52:28;;;;;;;5.33;1.80;;;;;;;;;;5021950;28;20258;-75
2022/04/13 02:54:53;;;;;;;5.07;1.93;;;;;;;;;;5015067;28;20176;-75
2022/04/13 02:57:18;;;;;;;4.80;1.70;;;;;;;;;;5016256;28;20193;-75
2022/04/13 02:59:46;;;;;;;4.43;1.70;;;;;;;;;;5019767;28;20179;-76
2022/04/13 03:02:11;;;;;;;4.73;2.07;;;;;;;;;;5034439;28;20216;-75
2022/04/13 03:04:37;;;;;;;4.33;3.27;;;;;;;;;;5036581;28;20231;-75
2022/04/13 03:07:02;;;;;;;2.33;1.50;;;;;;;;;;5024230;28;20202;-75
2022/04/13 03:09:27;;;;;;;3.13;2.50;;;;;;;;;;5011892;28;20260;-75
2022/04/13 03:11:52;;;;;;;4.47;1.80;;;;;;;;;;5015371;28;20458;-75
2022/04/13 03:14:18;;;;;;;3.70;1.87;;;;;;;;;;5013494;28;20195;-75
2022/04/13 03:16:44;;;;;;;2.00;1.70;;;;;;;;;;5020340;28;20245;-76
2022/04/13 03:19:09;;;;;;;2.43;1.87;;;;;;;;;;5031231;28;20433;-75
2022/04/13 03:21:34;;;;;;;1.87;1.70;;;;;;;;;;5020104;28;20218;-75
2022/04/13 03:23:59;;;;;;;2.33;1.70;;;;;;;;;;5028020;28;20202;-75
2022/04/13 03:26:24;;;;;;;3.87;1.60;;;;;;;;;;5034621;28;20327;-75
2022/04/13 03:28:50;;;;;;;3.93;2.10;;;;;;;;;;5018531;28;20206;-75
2022/04/13 03:31:16;;;;;;;3.33;1.53;;;;;;;;;;5019172;28;20172;-75
2022/04/13 03:33:42;;;;;;;3.63;2.07;;;;;;;;;;5018891;28;20173;-76
2022/04/13 03:36:07;;;;;;;5.97;1.70;;;;;;;;;;5019640;28;20191;-76
2022/04/13 03:38:32;;;;;;;7.57;1.80;;;;;;;;;;5026247;28;20249;-76
2022/04/13 03:40:57;;;;;;;2.80;1.93;;;;;;;;;;5018217;28;20180;-76
2022/04/13 03:43:22;;;;;;;3.10;1.83;;;;;;;;;;5030184;28;20264;-75
2022/04/13 03:45:48;;;;;;;2.30;1.50;;;;;;;;;;5019380;28;20182;-76
2022/04/13 03:48:13;;;;;;;4.77;1.87;;;;;;;;;;5017548;28;20211;-75
2022/04/13 03:50:38;;;;;;;2.80;1.70;;;;;;;;;;5014997;28;20232;-75
2022/04/13 03:53:03;;;;;;;4.27;1.87;;;;;;;;;;5019066;28;20183;-76
2022/04/13 03:55:28;;;;;;;1.80;1.60;;;;;;;;;;5042344;28;20319;-75
2022/04/13 03:57:54;;;;;;;2.80;1.90;;;;;;;;;;5040062;28;20278;-75
2022/04/13 04:00:19;;;;;;;4.53;2.03;;;;;;;;;;5038573;28;20182;-75
2022/04/13 04:02:44;;;;;;;6.23;2.03;;;;;;;;;;5021806;28;20244;-75
2022/04/13 04:05:10;;;;;;;3.80;1.60;;;;;;;;;;5012673;28;20249;-75
2022/04/13 04:07:36;;;;;;;3.67;1.70;;;;;;;;;;5017707;28;20248;-75
2022/04/13 04:10:01;;;;;;;3.17;2.00;;;;;;;;;;5033883;28;20178;-75
2022/04/13 04:12:26;;;;;;;2.40;2.13;;;;;;;;;;5030532;28;20175;-75
2022/04/13 04:14:52;;;;;;;10.33;1.77;;;;;;;;;;5023479;28;20169;-75
2022/04/13 04:17:17;;;;;;;2.35;1.50;;;;;;;;;;5022563;28;20182;-75
2022/04/13 04:19:42;;;;;;;2.03;1.60;;;;;;;;;;5021583;28;20271;-75
2022/04/13 04:22:07;;;;;;;4.03;1.53;;;;;;;;;;5030972;28;20177;-76
2022/04/13 04:24:32;;;;;;;4.87;3.20;;;;;;;;;;5023896;28;20273;-75
2022/04/13 04:26:57;;;;;;;3.70;1.90;;;;;;;;;;5015558;28;20231;-76
2022/04/13 04:29:23;;;;;;;4.07;2.07;;;;;;;;;;5038097;28;20182;-75
2022/04/13 04:31:53;;;;;;;3.93;2.20;;;;;;;;;;5024341;28;20273;-76
2022/04/13 04:34:19;;;;;;;2.07;1.60;;;;;;;;;;5017464;28;20186;-75
2022/04/13 04:36:44;;;;;;;2.40;2.03;;;;;;;;;;5015600;28;20233;-76
2022/04/13 04:39:09;;;;;;;3.30;1.57;;;;;;;;;;5019455;28;20238;-75
2022/04/13 04:41:34;;;;;;;2.10;1.40;;;;;;;;;;5026777;28;20190;-75
2022/04/13 04:44:00;;;;;;;5.63;1.87;;;;;;;;;;5028479;28;20187;-75
2022/04/13 04:46:25;;;;;;;2.93;1.90;;;;;;;;;;5027066;28;20198;-75
2022/04/13 04:48:50;;;;;;;4.13;1.90;;;;;;;;;;5027809;28;20182;-76
2022/04/13 04:51:16;;;;;;;5.17;1.80;;;;;;;;;;5025098;28;20183;-75
2022/04/13 04:53:41;;;;;;;10.57;2.60;;;;;;;;;;5019457;28;20179;-76
2022/04/13 04:56:06;;;;;;;5.53;1.90;;;;;;;;;;5035499;28;20186;-75
2022/04/13 04:58:32;;;;;;;7.80;4.10;;;;;;;;;;5023864;28;20246;-76
2022/04/13 05:00:57;;;;;;;15.50;6.93;;;;;;;;;;5035963;28;20236;-75
2022/04/13 05:03:22;;;;;;;34.30;16.70;;;;;;;;;;5036515;28;20184;-75
2022/04/13 05:05:47;;;;;;;42.63;19.70;;;;;;;;;;5021996;28;20198;-75
2022/04/13 05:08:15;;;;;;;5.90;3.60;;;;;;;;;;5018999;28;20218;-75
2022/04/13 05:10:50;;;;;;;7.17;3.37;;;;;;;;;;5029473;28;20186;-75
2022/04/13 05:13:16;;;;;;;4.20;2.17;;;;;;;;;;5024366;28;20394;-75
2022/04/13 05:15:41;;;;;;;4.53;2.30;;;;;;;;;;5031872;28;20187;-75
2022/04/13 05:18:06;;;;;;;5.60;3.00;;;;;;;;;;5038817;28;20233;-75
2022/04/13 05:20:31;;;;;;;5.87;1.90;;;;;;;;;;5024296;28;20196;-75
2022/04/13 05:22:56;;;;;;;20.23;10.40;;;;;;;;;;5026323;28;20182;-75
2022/04/13 05:25:22;;;;;;;4.87;2.37;;;;;;;;;;5020651;28;20222;-75
2022/04/13 05:27:47;;;;;;;7.03;2.90;;;;;;;;;;5029412;28;20206;-75
2022/04/13 05:30:15;;;;;;;21.10;7.40;;;;;;;;;;5022236;28;20182;-75
2022/04/13 05:32:47;;;;;;;20.53;7.27;;;;;;;;;;5029138;28;20234;-75
2022/04/13 05:35:12;;;;;;;13.73;7.70;;;;;;;;;;5037905;28;20190;-75
2022/04/13 05:37:37;;;;;;;10.17;5.33;;;;;;;;;;5015767;28;20183;-75
2022/04/13 05:40:03;;;;;;;4.80;2.30;;;;;;;;;;5037554;28;20250;-75
2022/04/13 05:42:30;;;;;;;3.90;1.90;;;;;;;;;;5021407;28;20217;-75
2022/04/13 05:44:55;;;;;;;6.27;1.80;;;;;;;;;;5038376;28;20187;-75
2022/04/13 05:47:21;;;;;;;4.03;1.83;;;;;;;;;;5029055;28;20194;-75
2022/04/13 05:49:46;;;;;;;2.03;1.80;;;;;;;;;;5028323;28;20193;-76
2022/04/13 05:52:11;;;;;;;5.97;2.10;;;;;;;;;;5022977;28;20177;-76
2022/04/13 05:54:36;;;;;;;2.27;2.00;;;;;;;;;;5018055;28;20181;-76
2022/04/13 05:57:02;;;;;;;3.87;3.50;;;;;;;;;;5024260;28;20225;-79
2022/04/13 05:59:28;;;;;;;30.83;22.47;;;;;;;;;;5024577;28;20203;-76
2022/04/13 06:01:53;;;;;;;15.83;9.90;;;;;;;;;;5032206;28;20202;-76
2022/04/13 06:04:18;;;;;;;11.77;8.37;;;;;;;;;;5033244;28;20198;-76
2022/04/13 06:06:44;;;;;;;27.73;22.73;;;;;;;;;;5028683;28;20210;-76
2022/04/13 06:09:09;;;;;;;25.27;20.67;;;;;;;;;;5018921;28;20192;-76
2022/04/13 06:11:34;;;;;;;8.47;7.53;;;;;;;;;;5026246;28;20178;-76
2022/04/13 06:13:59;;;;;;;3.40;2.70;;;;;;;;;;5022043;28;20197;-76
2022/04/13 06:16:24;;;;;;;3.90;2.50;;;;;;;;;;5021410;28;20174;-76
2022/04/13 06:18:50;;;;;;;4.73;2.20;;;;;;;;;;5022713;28;20189;-76
2022/04/13 06:21:15;;;;;;;4.60;1.90;;;;;;;;;;5027109;28;20217;-76
2022/04/13 06:23:40;;;;;;;3.10;2.00;;;;;;;;;;5026163;28;20193;-76
2022/04/13 06:26:05;;;;;;;6.73;2.37;;;;;;;;;;5035253;28;20262;-76
2022/04/13 06:28:30;;;;;;;2.33;1.77;;;;;;;;;;5029849;28;20213;-76
2022/04/13 06:30:56;;;;;;;3.87;1.97;;;;;;;;;;5028950;28;20309;-76
2022/04/13 06:33:21;;;;;;;7.07;2.40;;;;;;;;;;5037548;28;20175;-76
2022/04/13 06:35:46;;;;;;;2.60;1.60;;;;;;;;;;5015803;28;20178;-76
2022/04/13 06:38:11;;;;;;;5.90;1.80;;;;;;;;;;5014949;28;20250;-76
2022/04/13 06:40:37;;;;;;;5.27;4.47;;;;;;;;;;5027867;28;20175;-76
2022/04/13 06:43:02;;;;;;;3.13;2.73;;;;;;;;;;5023893;28;20266;-76
2022/04/13 06:45:27;;;;;;;4.20;2.80;;;;;;;;;;5036338;28;21528;-76
2022/04/13 06:47:53;;;;;;;5.80;3.17;;;;;;;;;;5026522;28;20211;-76
2022/04/13 06:50:18;;;;;;;7.80;3.53;;;;;;;;;;5025642;28;20267;-76
2022/04/13 06:52:44;;;;;;;17.17;5.13;;;;;;;;;;5021283;28;20180;-77
2022/04/13 06:55:09;;;;;;;10.57;4.97;;;;;;;;;;5020997;28;20185;-76
2022/04/13 06:57:37;;;;;;;7.73;3.33;;;;;;;;;;5028182;28;20206;-76
2022/04/13 07:00:03;;;;;;;22.27;5.50;;;;;;;;;;5016520;28;20197;-76
2022/04/13 07:02:28;;;;;;;3.80;3.23;;;;;;;;;;5020838;28;20219;-76
2022/04/13 07:04:53;;;;;;;6.03;3.37;;;;;;;;;;5021448;28;20230;-76
2022/04/13 07:07:18;;;;;;;6.73;4.87;;;;;;;;;;5021987;28;20283;-76
2022/04/13 07:09:44;;;;;;;7.70;3.37;;;;;;;;;;5023140;28;20186;-76
2022/04/13 07:12:09;;;;;;;4.97;3.47;;;;;;;;;;5027790;28;20214;-76
2022/04/13 07:14:34;;;;;;;5.37;2.30;;;;;;;;;;5024005;28;20179;-76
2022/04/13 07:16:59;;;;;;;5.80;2.33;;;;;;;;;;5019110;28;20267;-76
2022/04/13 07:19:24;;;;;;;3.57;1.90;;;;;;;;;;5033601;28;20189;-76
2022/04/13 07:21:50;;;;;;;3.70;1.70;;;;;;;;;;5021413;28;20185;-76
2022/04/13 07:24:15;;;;;;;35.00;6.67;;;;;;;;;;5038634;28;20181;-76
2022/04/13 07:26:40;;;;;;;8.93;2.73;;;;;;;;;;5013947;28;20284;-76
2022/04/13 07:29:06;;;;;;;3.97;2.10;;;;;;;;;;5035424;28;20215;-76
2022/04/13 07:31:32;;;;;;;4.80;2.33;;;;;;;;;;5023265;28;20187;-76
2022/04/13 07:33:57;;;;;;;5.90;2.03;;;;;;;;;;5014391;28;20232;-76
2022/04/13 07:36:23;;;;;;;3.10;2.63;;;;;;;;;;5023890;28;20169;-76
2022/04/13 07:38:50;;;;;;;4.77;2.40;;;;;;;;;;5025277;28;20189;-76
2022/04/13 07:41:15;;;;;;;4.50;1.93;;;;;;;;;;5024365;28;20177;-76
2022/04/13 07:43:40;;;;;;;3.83;1.70;;;;;;;;;;5027510;28;20181;-76
2022/04/13 07:46:05;;;;;;;5.93;2.40;;;;;;;;;;5022577;28;20383;-76
2022/04/13 07:48:30;;;;;;;4.27;1.93;;;;;;;;;;5027250;28;20239;-76
2022/04/13 07:50:56;;;;;;;3.37;1.80;;;;;;;;;;5027717;28;20190;-76
2022/04/13 07:53:21;;;;;;;2.97;1.90;;;;;;;;;;5042848;28;20222;-76
2022/04/13 07:55:46;;;;;;;2.80;1.80;;;;;;;;;;5025101;28;20179;-76
2022/04/13 07:58:11;;;;;;;4.13;2.30;;;;;;;;;;5015889;28;20184;-76
2022/04/13 08:00:36;;;;;;;5.87;2.87;;;;;;;;;;5030500;28;20189;-76
2022/04/13 08:03:02;;;;;;;4.37;3.27;;;;;;;;;;5026622;28;20179;-76
2022/04/13 08:05:27;;;;;;;2.37;2.03;;;;;;;;;;5019995;28;20203;-74
2022/04/13 08:07:52;;;;;;;3.20;1.93;;;;;;;;;;5026879;28;20210;-73
2022/04/13 08:10:17;;;;;;;2.80;1.70;;;;;;;;;;5027898;28;20181;-74
2022/04/13 08:12:46;;;;;;;3.37;2.10;;;;;;;;;;5029461;28;20179;-73
2022/04/13 08:15:12;;;;;;;4.63;1.90;;;;;;;;;;5021931;28;20209;-74
2022/04/13 08:17:40;;;;;;;3.77;1.70;;;;;;;;;;5028738;28;20183;-74
2022/04/13 08:20:09;;;;;;;3.57;1.83;;;;;;;;;;5027104;28;20182;-74
2022/04/13 08:22:35;;;;;;;1.97;1.73;;;;;;;;;;5030940;28;20257;-73
2022/04/13 08:25:00;;;;;;;3.17;1.77;;;;;;;;;;5026926;28;20211;-73
2022/04/13 08:27:25;;;;;;;3.63;2.00;;;;;;;;;;5026893;28;20232;-74
2022/04/13 08:29:51;;;;;;;3.83;1.90;;;;;;;;;;5043489;28;20197;-74
2022/04/13 08:32:17;;;;;;;3.17;2.20;;;;;;;;;;5046224;28;20247;-74
2022/04/13 08:34:43;;;;;;;2.90;1.73;;;;;;;;;;5026836;28;20205;-73
2022/04/13 08:37:09;;;;;;;4.57;2.03;;;;;;;;;;5031738;28;20184;-73
2022/04/13 08:39:35;;;;;;;3.67;1.47;;;;;;;;;;5031703;28;20190;-74
2022/04/13 08:42:06;;;;;;;3.20;2.00;;;;;;;;;;5028762;28;20181;-73
2022/04/13 08:44:36;;;;;;;5.23;2.40;;;;;;;;;;5025614;28;20263;-74
2022/04/13 08:47:06;;;;;;;4.33;2.00;;;;;;;;;;5030391;28;20228;-74
2022/04/13 08:49:32;;;;;;;2.03;1.70;;;;;;;;;;5030008;28;20176;-74
2022/04/13 08:52:03;;;;;;;2.40;1.53;;;;;;;;;;5030938;28;20189;-73
2022/04/13 08:54:31;;;;;;;5.03;1.80;;;;;;;;;;5043952;28;20189;-74
2022/04/13 08:56:57;;;;;;;3.27;1.53;;;;;;;;;;5031468;28;20243;-73
2022/04/13 08:59:22;;;;;;;5.20;1.73;;;;;;;;;;5027505;28;20227;-74
2022/04/13 09:01:59;;;;;;;6.00;2.05;;;;;;;;;;5041509;28;20287;-73
2022/04/13 09:04:26;;;;;;;3.37;1.90;;;;;;;;;;5029404;28;20229;-73
2022/04/13 09:06:53;;;;;;;6.13;1.70;;;;;;;;;;5031339;28;20204;-73
2022/04/13 09:09:28;;;;;;;4.40;1.53;;;;;;;;;;5030341;28;20218;-74
2022/04/13 09:11:54;;;;;;;3.70;1.93;;;;;;;;;;5029657;28;20179;-76
2022/04/13 09:14:20;;;;;;;2.57;1.50;;;;;;;;;;5024515;28;20190;-76
2022/04/13 09:16:45;;;;;;;3.63;1.63;;;;;;;;;;5023183;28;20217;-76
2022/04/13 09:19:11;;;;;;;5.97;2.20;;;;;;;;;;5043884;28;20226;-76
2022/04/13 09:21:36;;;;;;;2.77;1.50;;;;;;;;;;5040960;28;20182;-76
2022/04/13 09:24:02;;;;;;;4.67;1.40;;;;;;;;;;5028071;28;20247;-73
2022/04/13 09:26:29;;;;;;;5.27;1.50;;;;;;;;;;5031075;28;20253;-73
2022/04/13 09:28:54;;;;;;;3.57;2.17;;;;;;;;;;5029398;28;20197;-73
2022/04/13 09:31:19;;;;;;;3.77;1.70;;;;;;;;;;5031899;28;20175;-73
2022/04/13 09:33:44;;;;;;;4.83;1.70;;;;;;;;;;5026770;28;20181;-73
2022/04/13 09:36:10;;;;;;;5.27;1.53;;;;;;;;;;5026189;28;20182;-73
2022/04/13 09:38:35;;;;;;;3.63;1.70;;;;;;;;;;5024714;28;20273;-73
2022/04/13 09:41:08;;;;;;;3.50;1.77;;;;;;;;;;5038838;28;20183;-74
2022/04/13 09:43:33;;;;;;;2.47;1.50;;;;;;;;;;5037296;28;20180;-73
2022/04/13 09:45:58;;;;;;;3.07;1.80;;;;;;;;;;5023760;28;20181;-73
2022/04/13 09:48:23;;;;;;;3.22;1.65;;;;;;;;;;5022290;28;20248;-73
2022/04/13 09:50:50;;;;;;;3.10;1.80;;;;;;;;;;5028066;28;20240;-73
2022/04/13 09:53:16;;;;;;;3.37;1.73;;;;;;;;;;5031407;28;20183;-73
2022/04/13 09:55:45;;;;;;;2.13;1.80;;;;;;;;;;5029990;28;20182;-73
2022/04/13 09:58:12;;;;;;;7.30;6.53;;;;;;;;;;5024096;28;20181;-74
2022/04/13 10:00:37;;;;;;;6.07;2.27;;;;;;;;;;5027339;28;20191;-73
2022/04/13 10:03:07;;;;;;;5.17;2.57;;;;;;;;;;5037220;28;20181;-73
2022/04/13 10:05:32;;;;;;;1.90;1.57;;;;;;;;;;5036915;28;20303;-73
2022/04/13 10:08:02;;;;;;;3.20;2.07;;;;;;;;;;5023450;28;20283;-73
2022/04/13 10:10:28;;;;;;;3.97;1.83;;;;;;;;;;5028973;28;20230;-73
2022/04/13 10:12:53;;;;;;;4.70;1.80;;;;;;;;;;5025889;28;20180;-73
2022/04/13 10:15:18;;;;;;;3.50;1.70;;;;;;;;;;5033943;28;20175;-73
2022/04/13 10:17:44;;;;;;;3.57;1.97;;;;;;;;;;5022502;28;20267;-73
2022/04/13 10:20:09;;;;;;;3.10;1.97;;;;;;;;;;5023879;28;20258;-73
2022/04/13 10:22:54;;;;;;;5.43;2.03;;;;;;;;;;5031275;28;20186;-73
2022/04/13 10:25:27;;;;;;;5.97;1.70;;;;;;;;;;5025784;28;20179;-73
2022/04/13 10:27:56;;;;;;;7.23;2.27;;;;;;;;;;5022112;28;20238;-73
2022/04/13 10:30:29;;;;;;;4.77;2.00;;;;;;;;;;5020833;28;20231;-73
2022/04/13 10:32:59;;;;;;;2.17;1.60;;;;;;;;;;5024439;28;20263;-73
2022/04/13 10:35:25;;;;;;;3.73;1.93;;;;;;;;;;5020103;28;20190;-73
2022/04/13 10:37:51;;;;;;;7.30;2.93;;;;;;;;;;5029914;28;20185;-73
2022/04/13 10:40:17;;;;;;;3.53;1.80;;;;;;;;;;5023991;28;20192;-73
2022/04/13 10:42:44;;;;;;;4.80;2.20;;;;;;;;;;5025562;28;20193;-73
2022/04/13 10:45:10;;;;;;;2.57;1.40;;;;;;;;;;5028072;28;20189;-73
2022/04/13 10:47:40;;;;;;;5.93;1.93;;;;;;;;;;5026771;28;20212;-73
2022/04/13 10:50:06;;;;;;;5.87;1.93;;;;;;;;;;5028902;28;20269;-73
2022/04/13 10:52:50;;;;;;;4.50;1.77;;;;;;;;;;5025656;28;20187;-73
2022/04/13 10:55:17;;;;;;;3.80;1.97;;;;;;;;;;5033609;28;20202;-73
2022/04/13 10:57:49;;;;;;;5.23;1.90;;;;;;;;;;5022094;28;20197;-73
2022/04/13 11:00:17;;;;;;;5.37;1.97;;;;;;;;;;5028587;28;20188;-73
2022/04/13 11:02:47;;;;;;;1.70;1.40;;;;;;;;;;5024210;28;20194;-73
2022/04/13 11:05:13;;;;;;;6.80;2.30;;;;;;;;;;5026771;28;20203;-73
2022/04/13 11:07:39;;;;;;;7.50;3.40;;;;;;;;;;5033552;28;20206;-73
2022/04/13 11:10:06;;;;;;;4.20;2.30;;;;;;;;;;5021734;28;20193;-73
2022/04/13 11:12:32;;;;;;;6.87;1.80;;;;;;;;;;5028469;28;20186;-73
2022/04/13 11:14:59;;;;;;;3.67;1.70;;;;;;;;;;5027177;28;20197;-74
2022/04/13 11:17:25;;;;;;;5.10;1.80;;;;;;;;;;5019339;28;20204;-73
2022/04/13 11:19:50;;;;;;;3.83;2.10;;;;;;;;;;5029024;28;20176;-73
2022/04/13 11:22:16;;;;;;;5.37;2.50;;;;;;;;;;5026363;28;20192;-73
2022/04/13 11:24:48;;;;;;;4.50;1.70;;;;;;;;;;5028112;28;20259;-73
2022/04/13 11:27:13;;;;;;;2.87;1.90;;;;;;;;;;5024934;28;20272;-73
2022/04/13 11:29:40;;;;;;;5.83;2.53;;;;;;;;;;5021584;28;20181;-73
2022/04/13 11:32:06;;;;;;;5.97;2.00;;;;;;;;;;5024849;28;20177;-73
2022/04/13 11:34:36;;;;;;;2.60;1.90;;;;;;;;;;5019495;28;20174;-73
2022/04/13 11:37:03;;;;;;;7.53;2.10;;;;;;;;;;5036789;28;20250;-73
2022/04/13 11:39:47;;;;;;;6.37;1.97;;;;;;;;;;5023547;28;20190;-73
2022/04/13 11:42:28;;;;;;;7.17;2.57;;;;;;;;;;5036464;28;20240;-73
2022/04/13 11:45:04;;;;;;;5.23;2.33;;;;;;;;;;5033230;28;20253;-73
2022/04/13 11:47:37;;;;;;;6.37;2.80;;;;;;;;;;5021319;28;20195;-73
2022/04/13 11:50:05;;;;;;;3.70;1.93;;;;;;;;;;5024454;28;20177;-73
2022/04/13 11:52:46;;;;;;;1.97;1.70;;;;;;;;;;5023692;28;20234;-73
2022/04/13 11:55:30;;;;;;;5.83;2.23;;;;;;;;;;5022139;28;20186;-73
2022/04/13 11:58:04;;;;;;;3.83;2.03;;;;;;;;;;5027062;28;20179;-73
2022/04/13 12:00:40;;;;;;;5.15;1.85;;;;;;;;;;5040979;28;20181;-73
2022/04/13 12:03:06;;;;;;;3.13;1.83;;;;;;;;;;5023689;28;20183;-73
2022/04/13 12:05:32;;;;;;;4.10;1.70;;;;;;;;;;5017291;28;20245;-73
2022/04/13 12:07:58;;;;;;;2.53;1.92;;;;;;;;;;5022757;28;20463;-73
2022/04/13 12:10:25;;;;;;;6.18;1.65;;;;;;;;;;5031791;28;20185;-73
2022/04/13 12:12:51;;;;;;;4.43;2.67;;;;;;;;;;5032032;28;20186;-73
2022/04/13 12:15:17;;;;;;;3.55;1.90;;;;;;;;;;5028270;28;20179;-73
2022/04/13 12:17:42;;;;;;;3.63;1.83;;;;;;;;;;5029250;28;20229;-73
2022/04/13 12:20:07;;;;;;;16.73;2.70;;;;;;;;;;5029531;28;20203;-73
2022/04/13 12:22:33;;;;;;;3.20;1.80;;;;;;;;;;5027466;28;20210;-73
2022/04/13 12:25:01;;;;;;;6.07;1.70;;;;;;;;;;5037110;28;20228;-73
2022/04/13 12:27:27;;;;;;;7.15;2.15;;;;;;;;;;5024577;28;20324;-73
2022/04/13 12:30:07;;;;;;;5.20;1.90;;;;;;;;;;5035338;28;20242;-73
2022/04/13 12:32:32;;;;;;;20.75;3.13;;;;;;;;;;5042748;28;20206;-73
2022/04/13 12:34:58;;;;;;;4.07;2.00;;;;;;;;;;5025908;28;20186;-73
2022/04/13 12:37:23;;;;;;;3.20;1.77;;;;;;;;;;5031641;28;20190;-73
2022/04/13 12:39:49;;;;;;;2.88;1.77;;;;;;;;;;5032456;28;20190;-73
2022/04/13 12:42:21;;;;;;;4.93;1.98;;;;;;;;;;5031076;28;20187;-73
2022/04/13 12:44:46;;;;;;;5.88;2.17;;;;;;;;;;5040383;28;20193;-73
2022/04/13 12:47:12;;;;;;;6.75;2.33;;;;;;;;;;5029573;28;20259;-73
2022/04/13 12:49:37;;;;;;;4.50;2.25;;;;;;;;;;5023287;28;20170;-73
2022/04/13 12:52:06;;;;;;;3.10;1.88;;;;;;;;;;5024677;28;20174;-73
2022/04/13 12:54:31;;;;;;;4.30;2.15;;;;;;;;;;5028709;28;20179;-73
2022/04/13 12:57:00;;;;;;;5.15;2.03;;;;;;;;;;5025523;28;20183;-73
2022/04/13 12:59:25;;;;;;;4.20;1.92;;;;;;;;;;5027887;28;20317;-73
2022/04/13 13:01:51;;;;;;;4.20;1.90;;;;;;;;;;5028635;28;20238;-73
2022/04/13 13:04:18;;;;;;;2.85;2.17;;;;;;;;;;5031028;28;20194;-73
2022/04/13 13:07:01;;;;;;;9.98;2.47;;;;;;;;;;5027836;28;20198;-73
2022/04/13 13:09:32;;;;;;;3.28;2.13;;;;;;;;;;5031716;28;20171;-73
2022/04/13 13:11:59;;;;;;;7.72;2.10;;;;;;;;;;5030431;28;20197;-73
2022/04/13 13:14:37;;;;;;;5.53;2.15;;;;;;;;;;5031556;28;20182;-73
2022/04/13 13:17:14;;;;;;;5.75;2.38;;;;;;;;;;5024876;28;20175;-73
2022/04/13 13:19:39;;;;;;;10.18;2.63;;;;;;;;;;5045388;28;20186;-73
2022/04/13 13:22:11;;;;;;;5.57;2.20;;;;;;;;;;5023178;28;20239;-73
2022/04/13 13:24:46;;;;;;;4.55;2.05;;;;;;;;;;5024803;28;20218;-73
2022/04/13 13:27:12;;;;;;;5.20;2.38;;;;;;;;;;5017707;28;20241;-73
2022/04/13 13:29:47;;;;;;;4.90;2.47;;;;;;;;;;5026965;28;20175;-73
2022/04/13 13:32:13;;;;;;;4.63;1.92;;;;;;;;;;5027725;28;20218;-73
2022/04/13 13:34:38;;;;;;;4.32;1.95;;;;;;;;;;5025698;28;20171;-73
2022/04/13 13:37:03;;;;;;;3.22;2.15;;;;;;;;;;5024562;28;20185;-73
2022/04/13 13:39:29;;;;;;;5.32;2.15;;;;;;;;;;5029817;28;20232;-73
2022/04/13 13:42:01;;;;;;;9.35;2.95;;;;;;;;;;5030154;28;20252;-73
2022/04/13 13:44:26;;;;;;;5.72;2.40;;;;;;;;;;5029508;28;20183;-73
2022/04/13 13:46:51;;;;;;;6.00;2.28;;;;;;;;;;5026414;28;20209;-73
2022/04/13 13:49:16;;;;;;;4.20;2.13;;;;;;;;;;5026496;28;20175;-73
2022/04/13 13:51:43;;;;;;;6.13;2.53;;;;;;;;;;5018417;28;20270;-73
2022/04/13 13:54:08;;;;;;;5.22;2.10;;;;;;;;;;5041524;28;20171;-73
2022/04/13 13:56:33;;;;;;;2.78;2.10;;;;;;;;;;5030403;28;20187;-73
2022/04/13 13:58:59;;;;;;;4.90;2.28;;;;;;;;;;5030219;28;20183;-73
2022/04/13 14:01:26;;;;;;;8.48;2.83;;;;;;;;;;5034258;28;20175;-73
2022/04/13 14:03:51;;;;;;;3.85;2.10;;;;;;;;;;5028211;28;20297;-73
2022/04/13 14:06:17;;;;;;;6.88;2.40;;;;;;;;;;5026477;28;20370;-73
2022/04/13 14:08:42;;;;;;;7.75;2.50;;;;;;;;;;5022012;28;20288;-75
2022/04/13 14:11:07;;;;;;;3.35;1.90;;;;;;;;;;5026357;28;20175;-76
2022/04/13 14:13:32;;;;;;;6.68;2.05;;;;;;;;;;5025623;28;20194;-76
2022/04/13 14:15:59;;;;;;;7.47;2.10;;;;;;;;;;5032857;28;20187;-76
2022/04/13 14:18:24;;;;;;;3.97;2.60;;;;;;;;;;5024736;28;20184;-72
2022/04/13 14:20:49;;;;;;;5.35;1.88;;;;;;;;;;5017262;28;20179;-72
2022/04/13 14:23:14;;;;;;;6.90;2.20;;;;;;;;;;5025078;28;20183;-72
2022/04/13 14:25:39;;;;;;;6.90;1.70;;;;;;;;;;5030814;28;20524;-71
2022/04/13 14:28:05;;;;;;;5.85;2.25;;;;;;;;;;5037543;28;20458;-71
2022/04/13 14:30:30;;;;;;;5.25;2.28;;;;;;;;;;5022022;28;20197;-72
2022/04/13 14:32:56;;;;;;;4.03;2.25;;;;;;;;;;5024427;28;20215;-71
2022/04/13 14:35:21;;;;;;;6.07;2.40;;;;;;;;;;5031470;28;20179;-71
2022/04/13 14:37:48;;;;;;;4.65;2.05;;;;;;;;;;5037575;28;20247;-72
2022/04/13 14:40:13;;;;;;;6.22;2.40;;;;;;;;;;5019843;28;20314;-72